createdAt,value
2018-02-20T00:00:34.920Z,49.43
2018-02-20T00:03:01.320Z,58.13
2018-02-20T00:05:27.616Z,51.80
2018-02-20T00:07:54.013Z,50.40
2018-02-20T00:10:20.611Z,46.93
2018-02-20T00:12:46.947Z,54.93
2018-02-20T00:15:13.704Z,55.47
2018-02-20T00:17:40.799Z,49.40
2018-02-20T00:20:07.093Z,48.53
2018-02-20T00:22:34.996Z,51.80
2018-02-20T00:25:01.765Z,53.97
2018-02-20T00:27:28.047Z,52.17
2018-02-20T00:29:54.428Z,46.37
2018-02-20T00:32:20.903Z,46.13
2018-02-20T00:34:47.299Z,47.40
2018-02-20T00:37:13.729Z,56.60
2018-02-20T00:39:40.887Z,49.33
2018-02-20T00:42:07.578Z,63.53
2018-02-20T00:44:33.917Z,55.40
2018-02-20T00:47:00.311Z,54.77
2018-02-20T00:49:27.372Z,57.03
2018-02-20T00:51:53.707Z,50.20
2018-02-20T00:54:20.291Z,57.40
2018-02-20T01:02:27.478Z,59.53
2018-02-20T01:04:54.655Z,63.30
2018-02-20T01:07:21.463Z,49.60
2018-02-20T01:09:47.929Z,56.40
2018-02-20T01:12:15.095Z,65.97
2018-02-20T01:26:04.155Z,61.87
2018-02-20T01:28:30.644Z,59.70
2018-02-20T01:30:57.048Z,52.97
2018-02-20T01:33:23.453Z,54.60
2018-02-20T01:35:50.553Z,61.03
2018-02-20T01:38:17.129Z,59.97
2018-02-20T01:40:43.600Z,57.70
2018-02-20T01:43:10.864Z,64.47
2018-02-20T02:03:33.379Z,52.00
2018-02-20T02:06:00.878Z,61.40
2018-02-20T02:08:27.258Z,62.23
2018-02-20T02:10:53.657Z,62.70
2018-02-20T02:13:19.993Z,63.10
2018-02-20T02:15:46.406Z,62.10
2018-02-20T02:18:14.608Z,58.30
2018-02-20T02:20:41.774Z,63.27
2018-02-20T02:23:08.159Z,59.47
2018-02-20T02:25:34.650Z,68.17
2018-02-20T02:28:02.744Z,62.10
2018-02-20T02:30:29.492Z,55.40
2018-02-20T02:53:54.602Z,54.53
2018-02-20T02:56:21.077Z,67.20
2018-02-20T02:58:48.931Z,60.37
2018-02-20T03:01:15.517Z,62.60
2018-02-20T03:03:42.252Z,62.67
2018-02-20T03:06:08.646Z,64.87
2018-02-20T03:08:35.402Z,63.37
2018-02-20T03:11:03.856Z,60.17
2018-02-20T03:13:31.032Z,64.30
2018-02-20T03:15:57.422Z,57.43
2018-02-20T03:18:24.214Z,77.33
2018-02-20T03:20:51.723Z,62.60
2018-02-20T03:23:19.917Z,60.70
2018-02-20T03:25:48.097Z,59.07
2018-02-20T03:28:14.567Z,69.70
2018-02-20T03:30:41.941Z,67.30
2018-02-20T03:33:09.482Z,68.07
2018-02-20T03:35:35.872Z,71.47
2018-02-20T03:38:02.541Z,67.43
2018-02-20T03:40:30.113Z,71.90
2018-02-20T03:42:57.249Z,69.90
2018-02-20T03:45:23.623Z,65.33
2018-02-20T03:47:51.490Z,68.73
2018-02-20T03:50:17.848Z,58.83
2018-02-20T03:52:45.512Z,58.23
2018-02-20T03:55:11.968Z,54.70
2018-02-20T03:57:39.429Z,65.67
2018-02-20T04:00:06.602Z,64.30
2018-02-20T04:02:34.672Z,59.03
2018-02-20T04:05:03.178Z,55.33
2018-02-20T04:07:31.257Z,60.27
2018-02-20T04:09:58.024Z,69.83
2018-02-20T04:12:24.356Z,64.43
2018-02-20T04:14:52.253Z,69.60
2018-02-20T04:17:18.713Z,62.27
2018-02-20T04:19:51.230Z,61.43
2018-02-20T04:22:17.591Z,64.57
2018-02-20T04:24:44.098Z,61.50
2018-02-20T04:27:11.284Z,56.83
2018-02-20T04:29:38.039Z,74.20
2018-02-20T04:32:05.057Z,55.70
2018-02-20T04:34:31.464Z,62.90
2018-02-20T04:36:58.134Z,62.30
2018-02-20T04:39:24.617Z,62.80
2018-02-20T04:41:51.386Z,57.60
2018-02-20T04:44:18.529Z,68.50
2018-02-20T04:46:45.435Z,59.67
2018-02-20T04:49:11.845Z,59.80
2018-02-20T04:51:38.656Z,67.03
2018-02-20T04:54:05.147Z,65.47
2018-02-20T04:56:31.518Z,62.20
2018-02-20T04:58:58.957Z,71.60
2018-02-20T05:01:26.156Z,64.37
2018-02-20T05:03:53.200Z,74.73
2018-02-20T05:06:19.668Z,75.53
2018-02-20T05:08:46.035Z,67.93
2018-02-20T05:11:12.401Z,63.43
2018-02-20T05:13:38.760Z,74.13
2018-02-20T05:16:05.266Z,68.03
2018-02-20T05:18:31.698Z,73.20
2018-02-20T05:20:58.081Z,67.10
2018-02-20T05:23:25.540Z,69.57
2018-02-20T05:25:51.949Z,71.97
2018-02-20T05:28:18.658Z,71.87
2018-02-20T05:30:45.000Z,73.17
2018-02-20T05:33:12.885Z,69.77
2018-02-20T05:35:41.014Z,76.60
2018-02-20T05:38:09.572Z,81.83
2018-02-20T05:40:36.035Z,70.70
2018-02-20T05:43:03.399Z,72.50
2018-02-20T05:45:30.709Z,71.83
2018-02-20T05:47:57.557Z,71.13
2018-02-20T05:50:25.252Z,77.27
2018-02-20T05:52:51.732Z,77.07
2018-02-20T05:55:18.667Z,77.97
2018-02-20T05:57:45.019Z,80.17
2018-02-20T06:00:11.794Z,73.77
2018-02-20T06:02:38.942Z,76.10
2018-02-20T06:05:06.386Z,78.83
2018-02-20T06:07:32.770Z,88.90
2018-02-20T06:09:59.479Z,85.53
2018-02-20T06:12:27.542Z,76.93
2018-02-20T06:14:54.090Z,76.43
2018-02-20T06:17:20.521Z,94.67
2018-02-20T06:19:47.210Z,84.73
2018-02-20T06:22:14.097Z,84.73
2018-02-20T06:24:42.146Z,87.27
2018-02-20T06:27:08.614Z,75.93
2018-02-20T06:29:35.497Z,73.73
2018-02-20T06:32:04.023Z,79.67
2018-02-20T06:34:30.401Z,87.57
2018-02-20T06:36:57.182Z,74.03
2018-02-20T06:39:23.555Z,88.43
2018-02-20T06:41:50.702Z,75.13
2018-02-20T06:44:17.881Z,84.27
2018-02-20T06:46:44.268Z,84.47
2018-02-20T06:49:12.338Z,86.83
2018-02-20T06:51:39.583Z,86.57
2018-02-20T06:54:06.738Z,81.60
2018-02-20T06:56:33.269Z,76.30
2018-02-20T06:58:59.617Z,86.30
2018-02-20T07:01:26.423Z,81.97
2018-02-20T07:03:54.525Z,85.00
2018-02-20T07:06:21.825Z,78.40
2018-02-20T07:08:50.023Z,86.90
2018-02-20T07:11:17.654Z,87.37
2018-02-20T07:13:45.202Z,84.97
2018-02-20T07:16:11.629Z,97.00
2018-02-20T07:18:38.096Z,78.90
2018-02-20T07:21:06.204Z,82.57
2018-02-20T07:23:33.643Z,95.00
2018-02-20T07:26:01.106Z,83.57
2018-02-20T07:28:27.574Z,86.20
2018-02-20T07:30:55.603Z,80.23
2018-02-20T07:33:23.584Z,74.37
2018-02-20T07:35:50.003Z,84.33
2018-02-20T07:38:16.708Z,76.47
2018-02-20T07:40:43.834Z,82.73
2018-02-20T07:43:10.630Z,80.67
2018-02-20T07:45:37.500Z,79.57
2018-02-20T07:48:06.054Z,79.67
2018-02-20T07:50:33.890Z,77.13
2018-02-20T07:53:01.111Z,84.53
2018-02-20T07:55:28.236Z,82.07
2018-02-20T07:57:54.863Z,82.10
2018-02-20T08:00:22.724Z,80.67
2018-02-20T08:02:49.863Z,81.47
2018-02-20T08:05:17.491Z,83.80
2018-02-20T08:07:44.973Z,89.53
2018-02-20T08:10:11.382Z,82.43
2018-02-20T08:12:38.096Z,80.67
2018-02-20T08:15:05.624Z,78.00
2018-02-20T08:17:33.203Z,81.10
2018-02-20T08:19:59.580Z,71.60
2018-02-20T08:22:28.232Z,81.53
2018-02-20T08:24:54.725Z,66.40
2018-02-20T08:27:21.141Z,80.80
2018-02-20T08:29:47.538Z,68.10
2018-02-20T08:32:13.989Z,67.03
2018-02-20T08:34:40.396Z,69.40
2018-02-20T08:37:07.675Z,70.50
2018-02-20T08:39:34.050Z,78.57
2018-02-20T08:42:00.492Z,68.50
2018-02-20T08:44:27.288Z,66.97
2018-02-20T08:46:55.389Z,85.20
2018-02-20T08:49:23.581Z,65.67
2018-02-20T08:51:50.020Z,73.60
2018-02-20T08:54:16.440Z,66.80
2018-02-20T08:56:43.609Z,54.30
2018-02-20T08:59:10.021Z,68.97
2018-02-20T09:01:36.360Z,64.10
2018-02-20T09:04:02.885Z,67.83
2018-02-20T09:06:29.345Z,64.40
2018-02-20T09:08:55.862Z,58.70
2018-02-20T09:11:23.827Z,67.13
2018-02-20T09:13:50.254Z,75.20
2018-02-20T09:16:16.797Z,55.13
2018-02-20T09:18:44.739Z,62.93
2018-02-20T09:21:11.920Z,68.40
2018-02-20T09:23:38.999Z,65.37
2018-02-20T09:26:05.413Z,61.00
2018-02-20T09:28:32.965Z,67.93
2018-02-20T09:31:00.071Z,57.37
2018-02-20T09:33:27.002Z,52.33
2018-02-20T09:35:55.091Z,63.10
2018-02-20T09:38:21.549Z,61.47
2018-02-20T09:40:49.521Z,60.77
2018-02-20T09:43:17.630Z,60.43
2018-02-20T09:45:51.162Z,61.63
2018-02-20T09:48:19.259Z,59.60
2018-02-20T09:50:47.141Z,64.93
2018-02-20T09:53:14.265Z,65.97
2018-02-20T09:55:41.581Z,49.60
2018-02-20T09:58:08.164Z,57.37
2018-02-20T10:00:35.385Z,50.57
2018-02-20T10:03:04.333Z,48.70
2018-02-20T10:05:31.631Z,55.10
2018-02-20T10:08:03.809Z,57.93
2018-02-20T10:10:30.779Z,53.17
2018-02-20T10:12:57.278Z,65.73
2018-02-20T10:15:24.108Z,55.07
2018-02-20T10:17:50.547Z,52.97
2018-02-20T10:20:18.002Z,46.77
2018-02-20T10:22:45.116Z,55.17
2018-02-20T10:25:13.044Z,54.60
2018-02-20T10:27:41.092Z,58.43
2018-02-20T10:30:07.566Z,75.40
2018-02-20T10:32:35.716Z,65.67
2018-02-20T10:35:03.262Z,52.47
2018-02-20T10:37:31.393Z,50.93
2018-02-20T10:39:58.532Z,54.37
2018-02-20T10:42:26.929Z,44.07
2018-02-20T10:44:55.484Z,49.23
2018-02-20T10:47:21.958Z,48.93
2018-02-20T10:49:49.289Z,39.43
2018-02-20T10:52:16.329Z,45.60
2018-02-20T10:54:44.412Z,38.83
2018-02-20T10:57:12.031Z,45.37
2018-02-20T10:59:38.518Z,40.57
2018-02-20T11:02:06.517Z,46.43
2018-02-20T11:04:36.438Z,46.53
2018-02-20T11:07:04.496Z,37.77
2018-02-20T11:09:32.051Z,41.80
2018-02-20T11:11:58.764Z,52.97
2018-02-20T11:14:25.608Z,47.33
2018-02-20T11:16:52.098Z,43.00
2018-02-20T11:19:18.496Z,45.23
2018-02-20T11:21:46.065Z,46.50
2018-02-20T11:24:12.537Z,39.80
2018-02-20T11:26:40.618Z,36.33
2018-02-20T11:29:07.832Z,44.33
2018-02-20T11:31:34.665Z,45.70
2018-02-20T11:34:01.132Z,41.10
2018-02-20T11:36:27.616Z,45.13
2018-02-20T11:38:53.979Z,40.07
2018-02-20T11:41:20.772Z,39.73
2018-02-20T11:43:47.981Z,45.00
2018-02-20T11:46:16.032Z,41.87
2018-02-20T11:48:43.288Z,39.53
2018-02-20T11:51:10.031Z,40.53
2018-02-20T11:53:36.569Z,35.77
2018-02-20T11:56:05.042Z,29.53
2018-02-20T11:58:33.638Z,42.67
2018-02-20T12:01:01.429Z,39.60
2018-02-20T12:03:28.897Z,39.67
2018-02-20T12:05:56.055Z,33.60
2018-02-20T12:08:22.437Z,41.30
2018-02-20T12:10:48.858Z,41.17
2018-02-20T12:13:16.069Z,36.63
2018-02-20T12:15:43.290Z,34.50
2018-02-20T12:18:11.368Z,37.30
2018-02-20T12:20:37.784Z,32.27
2018-02-20T12:23:04.242Z,41.80
2018-02-20T12:25:31.093Z,34.53
2018-02-20T12:27:57.990Z,30.30
2018-02-20T12:30:25.554Z,30.30
2018-02-20T12:32:52.332Z,42.60
2018-02-20T12:35:20.482Z,33.20
2018-02-20T12:37:47.043Z,37.13
2018-02-20T12:40:14.052Z,37.80
2018-02-20T12:42:41.113Z,28.03
2018-02-20T12:45:08.256Z,43.83
2018-02-20T12:47:35.110Z,31.97
2018-02-20T12:50:01.625Z,31.17
2018-02-20T12:52:30.047Z,28.40
2018-02-20T12:54:57.263Z,37.93
2018-02-20T12:57:23.850Z,35.10
2018-02-20T12:59:50.292Z,26.27
2018-02-20T13:02:17.487Z,43.87
2018-02-20T13:04:44.284Z,24.00
2018-02-20T13:07:10.684Z,26.93
2018-02-20T13:09:37.113Z,24.17
2018-02-20T13:12:04.061Z,25.13
2018-02-20T13:14:30.910Z,22.90
2018-02-20T13:16:57.358Z,30.10
2018-02-20T13:19:23.783Z,29.67
2018-02-20T13:21:50.941Z,26.20
2018-02-20T13:24:19.108Z,26.27
2018-02-20T13:26:46.620Z,21.17
2018-02-20T13:29:13.038Z,16.87
2018-02-20T13:31:39.812Z,21.87
2018-02-20T13:34:06.265Z,24.50
2018-02-20T13:36:32.951Z,20.17
2018-02-20T13:39:01.245Z,29.00
2018-02-20T13:41:28.357Z,21.80
2018-02-20T13:43:56.553Z,19.77
2018-02-20T13:46:24.147Z,24.77
2018-02-20T13:48:51.322Z,28.87
2018-02-20T13:51:18.586Z,22.80
2018-02-20T13:53:50.222Z,22.37
2018-02-20T13:56:17.436Z,19.27
2018-02-20T13:58:44.526Z,18.30
2018-02-20T14:01:10.949Z,18.73
2018-02-20T14:03:38.123Z,25.27
2018-02-20T14:06:04.508Z,22.60
2018-02-20T14:08:32.011Z,25.53
2018-02-20T14:10:58.767Z,18.07
2018-02-20T14:13:26.924Z,19.23
2018-02-20T14:15:54.310Z,16.07
2018-02-20T14:18:21.085Z,23.07
2018-02-20T14:20:48.189Z,20.90
2018-02-20T14:23:15.594Z,19.40
2018-02-20T14:25:43.135Z,19.60
2018-02-20T14:28:13.919Z,23.90
2018-02-20T14:30:41.716Z,18.00
2018-02-20T14:33:17.056Z,16.20
2018-02-20T14:35:45.453Z,23.53
2018-02-20T14:38:13.883Z,20.50
2018-02-20T14:40:41.071Z,17.80
2018-02-20T14:43:11.284Z,16.83
2018-02-20T14:45:37.808Z,14.33
2018-02-20T14:48:05.867Z,19.33
2018-02-20T14:50:34.176Z,18.63
2018-02-20T14:53:00.632Z,18.70
2018-02-20T14:55:28.946Z,18.00
2018-02-20T14:57:55.703Z,20.10
2018-02-20T15:00:23.304Z,19.60
2018-02-20T15:02:51.423Z,20.03
2018-02-20T15:05:19.069Z,17.13
2018-02-20T15:07:45.702Z,18.93
2018-02-20T15:10:12.292Z,19.33
2018-02-20T15:12:39.170Z,17.83
2018-02-20T15:15:07.037Z,18.47
2018-02-20T15:17:33.559Z,19.40
2018-02-20T15:20:00.004Z,24.57
2018-02-20T15:22:28.602Z,22.10
2018-02-20T15:25:03.909Z,24.13
2018-02-20T15:27:32.235Z,21.27
2018-02-20T15:29:58.671Z,23.80
2018-02-20T15:32:26.826Z,29.10
2018-02-20T15:34:59.375Z,26.90
2018-02-20T15:37:27.423Z,30.23
2018-02-20T15:39:55.320Z,35.67
2018-02-20T15:42:22.140Z,29.73
2018-02-20T15:44:48.912Z,26.63
2018-02-20T15:47:15.511Z,31.40
2018-02-20T15:49:51.085Z,32.40
2018-02-20T15:52:18.337Z,33.07
2018-02-20T15:54:48.038Z,37.20
2018-02-20T15:57:28.615Z,40.20
2018-02-20T15:59:56.712Z,40.87
2018-02-20T16:02:24.769Z,42.53
2018-02-20T16:04:54.161Z,47.50
2018-02-20T16:07:21.455Z,43.43
2018-02-20T16:09:49.275Z,46.27
2018-02-20T16:12:15.729Z,45.27
2018-02-20T16:14:42.209Z,40.73
2018-02-20T16:17:09.713Z,39.10
2018-02-20T16:19:37.183Z,42.40
2018-02-20T16:22:11.358Z,43.23
2018-02-20T16:24:38.500Z,43.97
2018-02-20T16:27:05.026Z,44.40
2018-02-20T16:29:31.565Z,48.50
2018-02-20T16:31:58.761Z,38.80
2018-02-20T16:34:28.221Z,47.40
2018-02-20T16:37:12.038Z,40.00
2018-02-20T16:39:38.953Z,40.60
2018-02-20T16:42:05.481Z,37.13
2018-02-20T16:44:32.631Z,41.77
2018-02-20T16:47:00.259Z,36.17
2018-02-20T16:49:27.382Z,38.57
2018-02-20T16:51:54.568Z,38.67
2018-02-20T16:54:23.620Z,42.37
2018-02-20T16:56:51.721Z,34.00
2018-02-20T16:59:18.594Z,42.70
2018-02-20T17:01:46.678Z,48.27
2018-02-20T17:04:13.841Z,34.00
2018-02-20T17:06:45.555Z,33.67
2018-02-20T17:09:12.004Z,30.33
2018-02-20T17:11:39.142Z,35.53
2018-02-20T17:35:00.021Z,32.80
2018-02-20T17:58:29.015Z,34.10
2018-02-20T18:00:55.545Z,35.10
2018-02-20T18:03:24.712Z,31.20
2018-02-20T18:05:52.546Z,32.87
2018-02-20T18:08:19.764Z,36.97
2018-02-20T18:10:46.244Z,37.63
2018-02-20T18:13:13.347Z,42.57
2018-02-20T18:15:40.345Z,39.73
2018-02-20T18:18:07.495Z,37.20
2018-02-20T18:20:34.468Z,28.90
2018-02-20T18:23:02.722Z,33.73
2018-02-20T18:25:29.129Z,39.20
2018-02-20T18:27:57.177Z,35.93
2018-02-20T18:30:24.112Z,44.57
2018-02-20T18:32:51.759Z,31.13
2018-02-20T18:35:20.067Z,31.50
2018-02-20T18:37:46.537Z,43.30
2018-02-20T18:40:14.950Z,39.53
2018-02-20T18:42:43.412Z,33.63
2018-02-20T18:45:11.897Z,35.80
2018-02-20T18:47:40.325Z,45.13
2018-02-20T18:50:09.803Z,35.07
2018-02-20T18:52:39.787Z,44.60
2018-02-20T18:55:10.775Z,43.10
2018-02-20T18:57:38.027Z,31.73
2018-02-20T19:00:07.797Z,38.87
2018-02-20T19:02:38.986Z,33.00
2018-02-20T19:05:08.900Z,37.43
2018-02-20T19:11:08.111Z,38.57
2018-02-20T19:13:35.116Z,39.27
2018-02-20T19:16:04.197Z,36.77
2018-02-20T19:18:34.660Z,38.80
2018-02-20T19:21:02.440Z,45.40
2018-02-20T19:23:30.681Z,37.70
2018-02-20T19:25:58.898Z,41.03
2018-02-20T19:28:27.479Z,36.20
2018-02-20T19:30:55.437Z,38.73
2018-02-20T19:33:25.264Z,44.77
2018-02-20T19:35:51.898Z,38.10
2018-02-20T19:38:18.473Z,44.27
2018-02-20T19:40:45.819Z,40.10
2018-02-20T19:43:13.115Z,36.50
2018-02-20T19:45:39.584Z,41.80
2018-02-20T19:48:06.818Z,36.83
2018-02-20T19:50:35.736Z,40.50
2018-02-20T19:53:05.054Z,43.47
2018-02-20T19:55:32.097Z,36.73
2018-02-20T19:58:00.266Z,42.03
2018-02-20T20:00:27.702Z,37.77
2018-02-20T20:02:54.256Z,35.93
2018-02-20T20:05:21.823Z,37.07
2018-02-20T20:07:48.247Z,33.87
2018-02-20T20:10:14.708Z,41.23
2018-02-20T20:12:42.307Z,43.40
2018-02-20T20:15:10.464Z,45.73
2018-02-20T20:17:39.375Z,35.83
2018-02-20T20:20:07.267Z,39.37
2018-02-20T20:22:35.824Z,31.00
2018-02-20T20:25:04.051Z,33.47
2018-02-20T20:27:32.248Z,37.40
2018-02-20T20:29:59.293Z,35.97
2018-02-20T20:32:27.235Z,39.40
2018-02-20T20:34:55.739Z,41.40
2018-02-20T20:37:24.719Z,32.10
2018-02-20T20:39:51.346Z,36.60
2018-02-20T20:42:19.750Z,33.23
2018-02-20T20:44:48.786Z,35.17
2018-02-20T20:47:15.979Z,34.07
2018-02-20T20:49:42.502Z,37.87
2018-02-20T20:52:09.723Z,33.17
2018-02-20T20:54:36.526Z,38.67
2018-02-20T20:57:04.000Z,36.87
2018-02-20T20:59:30.801Z,44.43
2018-02-20T21:01:58.325Z,41.57
2018-02-20T21:04:26.322Z,37.17
2018-02-20T21:06:53.776Z,34.53
2018-02-20T21:09:21.616Z,35.40
2018-02-20T21:11:48.143Z,38.43
2018-02-20T21:14:14.589Z,39.70
2018-02-20T21:16:41.039Z,38.17
2018-02-20T21:19:07.891Z,48.03
2018-02-20T21:21:35.073Z,34.90
2018-02-20T21:24:01.596Z,41.70
2018-02-20T21:26:28.093Z,35.63
2018-02-20T21:28:54.528Z,45.70
2018-02-20T21:31:22.253Z,39.30
2018-02-20T21:33:48.749Z,36.50
2018-02-20T21:36:15.353Z,37.63
2018-02-20T21:38:41.867Z,39.97
2018-02-20T21:41:09.864Z,41.80
2018-02-20T21:43:37.175Z,39.80
2018-02-20T21:46:04.466Z,46.30
2018-02-20T21:48:31.188Z,32.73
2018-02-20T21:50:58.395Z,36.27
2018-02-20T21:53:31.713Z,38.70
2018-02-20T21:55:59.641Z,40.93
2018-02-20T21:58:26.056Z,32.27
2018-02-20T22:00:53.212Z,34.13
2018-02-20T22:03:19.607Z,40.47
2018-02-20T22:05:46.120Z,32.10
2018-02-20T22:08:15.058Z,36.20
2018-02-20T22:10:42.216Z,35.93
2018-02-20T22:13:08.644Z,46.67
2018-02-20T22:15:35.041Z,37.07
2018-02-20T22:18:02.564Z,32.57
2018-02-20T22:20:30.764Z,42.60
2018-02-20T22:22:57.270Z,36.00
2018-02-20T22:25:25.144Z,39.73
2018-02-20T22:27:51.542Z,40.70
2018-02-20T22:30:18.004Z,37.10
2018-02-20T22:32:45.507Z,30.50
2018-02-20T22:35:12.618Z,30.63
2018-02-20T22:37:40.479Z,37.27
2018-02-20T22:40:07.617Z,37.67
2018-02-20T22:42:34.634Z,37.40
2018-02-20T22:45:01.855Z,36.20
2018-02-20T22:47:28.368Z,34.60
2018-02-20T22:49:54.728Z,28.57
2018-02-20T22:52:22.318Z,34.63
2018-02-20T22:54:49.819Z,40.70
2018-02-20T22:57:16.655Z,38.47
2018-02-20T22:59:44.786Z,35.17
2018-02-20T23:02:12.919Z,43.33
2018-02-20T23:04:40.101Z,34.37
2018-02-20T23:07:06.507Z,41.73
2018-02-20T23:09:33.004Z,33.97
2018-02-20T23:11:59.605Z,29.70
2018-02-20T23:14:27.882Z,46.93
2018-02-20T23:16:54.353Z,29.87
2018-02-20T23:19:20.703Z,33.80
2018-02-20T23:21:47.645Z,42.33
2018-02-20T23:24:14.837Z,38.57
2018-02-20T23:26:42.548Z,34.33
2018-02-20T23:29:10.084Z,31.80
2018-02-20T23:31:37.280Z,35.13
2018-02-20T23:34:03.699Z,35.83
2018-02-20T23:36:31.236Z,36.47
2018-02-20T23:38:58.422Z,37.83
2018-02-20T23:41:24.923Z,30.40
2018-02-20T23:43:51.862Z,31.03
2018-02-20T23:48:57.727Z,38.60
2018-02-20T23:51:30.277Z,31.90
2018-02-20T23:53:56.637Z,36.93
2018-02-20T23:56:23.802Z,36.60
2018-02-20T23:58:50.552Z,41.80
